sensor_id;sensor_type;location;lat;lon;timestamp;P1;durP1;ratioP1;P2;durP2;ratioP2
14732;SDS011;7457;50.960;6.830;2022-08-21T00:00:34;17.55;;;9.70;;
14732;SDS011;7457;50.960;6.830;2022-08-21T00:03:04;16.00;;;11.23;;
14732;SDS011;7457;50.960;6.830;2022-08-21T00:05:32;15.15;;;10.32;;
14732;SDS011;7457;50.960;6.830;2022-08-21T00:08:00;16.25;;;10.25;;
14732;SDS011;7457;50.960;6.830;2022-08-21T00:10:26;17.50;;;10.30;;
14732;SDS011;7457;50.960;6.830;2022-08-21T00:12:52;15.35;;;10.40;;
14732;SDS011;7457;50.960;6.830;2022-08-21T00:15:20;15.15;;;10.18;;
14732;SDS011;7457;50.960;6.830;2022-08-21T00:17:48;12.45;;;9.25;;
14732;SDS011;7457;50.960;6.830;2022-08-21T00:20:14;11.98;;;9.32;;
14732;SDS011;7457;50.960;6.830;2022-08-21T00:22:41;12.38;;;9.82;;
14732;SDS011;7457;50.960;6.830;2022-08-21T00:25:07;14.27;;;9.48;;
14732;SDS011;7457;50.960;6.830;2022-08-21T00:27:34;13.73;;;8.70;;
14732;SDS011;7457;50.960;6.830;2022-08-21T00:30:00;8.98;;;8.07;;
14732;SDS011;7457;50.960;6.830;2022-08-21T00:32:28;11.75;;;8.90;;
14732;SDS011;7457;50.960;6.830;2022-08-21T00:34:53;10.50;;;8.85;;
14732;SDS011;7457;50.960;6.830;2022-08-21T00:37:19;16.20;;;9.55;;
14732;SDS011;7457;50.960;6.830;2022-08-21T00:39:45;12.30;;;9.15;;
14732;SDS011;7457;50.960;6.830;2022-08-21T00:42:12;11.90;;;9.63;;
14732;SDS011;7457;50.960;6.830;2022-08-21T00:44:44;11.68;;;8.93;;
14732;SDS011;7457;50.960;6.830;2022-08-21T00:47:11;11.35;;;8.52;;
14732;SDS011;7457;50.960;6.830;2022-08-21T00:49:38;13.75;;;9.70;;
14732;SDS011;7457;50.960;6.830;2022-08-21T00:52:05;10.45;;;8.65;;
14732;SDS011;7457;50.960;6.830;2022-08-21T00:54:34;12.05;;;8.88;;
14732;SDS011;7457;50.960;6.830;2022-08-21T00:57:05;13.10;;;8.63;;
14732;SDS011;7457;50.960;6.830;2022-08-21T00:59:36;10.40;;;8.40;;
14732;SDS011;7457;50.960;6.830;2022-08-21T01:02:05;12.30;;;8.50;;
14732;SDS011;7457;50.960;6.830;2022-08-21T01:04:32;12.32;;;8.52;;
14732;SDS011;7457;50.960;6.830;2022-08-21T01:06:58;13.30;;;8.45;;
14732;SDS011;7457;50.960;6.830;2022-08-21T01:09:24;11.43;;;8.32;;
14732;SDS011;7457;50.960;6.830;2022-08-21T01:11:50;10.20;;;8.90;;
14732;SDS011;7457;50.960;6.830;2022-08-21T01:14:16;10.05;;;8.60;;
14732;SDS011;7457;50.960;6.830;2022-08-21T01:16:45;11.73;;;8.38;;
14732;SDS011;7457;50.960;6.830;2022-08-21T01:19:13;13.63;;;8.32;;
14732;SDS011;7457;50.960;6.830;2022-08-21T01:21:41;13.50;;;9.68;;
14732;SDS011;7457;50.960;6.830;2022-08-21T01:24:07;11.68;;;8.55;;
14732;SDS011;7457;50.960;6.830;2022-08-21T01:26:33;10.95;;;8.88;;
14732;SDS011;7457;50.960;6.830;2022-08-21T01:31:58;15.07;;;9.13;;
14732;SDS011;7457;50.960;6.830;2022-08-21T01:34:28;17.23;;;9.73;;
14732;SDS011;7457;50.960;6.830;2022-08-21T01:36:53;13.98;;;9.35;;
14732;SDS011;7457;50.960;6.830;2022-08-21T01:39:19;11.70;;;10.07;;
14732;SDS011;7457;50.960;6.830;2022-08-21T01:41:45;14.25;;;10.52;;
14732;SDS011;7457;50.960;6.830;2022-08-21T01:44:10;12.00;;;9.82;;
14732;SDS011;7457;50.960;6.830;2022-08-21T01:46:36;11.90;;;9.73;;
14732;SDS011;7457;50.960;6.830;2022-08-21T01:49:02;13.90;;;10.63;;
14732;SDS011;7457;50.960;6.830;2022-08-21T01:51:29;16.27;;;11.07;;
14732;SDS011;7457;50.960;6.830;2022-08-21T01:53:54;16.48;;;10.75;;
14732;SDS011;7457;50.960;6.830;2022-08-21T01:56:20;14.45;;;10.85;;
14732;SDS011;7457;50.960;6.830;2022-08-21T01:58:46;15.23;;;10.75;;
14732;SDS011;7457;50.960;6.830;2022-08-21T02:01:12;16.27;;;11.75;;
14732;SDS011;7457;50.960;6.830;2022-08-21T02:03:39;14.60;;;10.30;;
14732;SDS011;7457;50.960;6.830;2022-08-21T02:06:05;11.45;;;10.00;;
14732;SDS011;7457;50.960;6.830;2022-08-21T02:08:32;16.83;;;11.38;;
14732;SDS011;7457;50.960;6.830;2022-08-21T02:10:58;16.25;;;10.77;;
14732;SDS011;7457;50.960;6.830;2022-08-21T02:13:24;16.50;;;11.73;;
14732;SDS011;7457;50.960;6.830;2022-08-21T02:15:51;12.88;;;10.52;;
14732;SDS011;7457;50.960;6.830;2022-08-21T02:18:16;15.43;;;10.57;;
14732;SDS011;7457;50.960;6.830;2022-08-21T02:20:44;15.27;;;10.25;;
14732;SDS011;7457;50.960;6.830;2022-08-21T02:23:12;12.25;;;10.57;;
14732;SDS011;7457;50.960;6.830;2022-08-21T02:25:38;19.02;;;10.88;;
14732;SDS011;7457;50.960;6.830;2022-08-21T02:28:06;17.98;;;12.18;;
14732;SDS011;7457;50.960;6.830;2022-08-21T02:30:36;15.90;;;11.32;;
14732;SDS011;7457;50.960;6.830;2022-08-21T02:33:04;17.50;;;12.77;;
14732;SDS011;7457;50.960;6.830;2022-08-21T02:35:30;18.00;;;12.35;;
14732;SDS011;7457;50.960;6.830;2022-08-21T02:37:57;28.02;;;12.80;;
14732;SDS011;7457;50.960;6.830;2022-08-21T02:40:27;14.77;;;11.75;;
14732;SDS011;7457;50.960;6.830;2022-08-21T02:42:55;18.58;;;12.60;;
14732;SDS011;7457;50.960;6.830;2022-08-21T02:45:22;16.30;;;10.35;;
14732;SDS011;7457;50.960;6.830;2022-08-21T02:47:48;13.88;;;11.10;;
14732;SDS011;7457;50.960;6.830;2022-08-21T02:50:17;19.10;;;11.25;;
14732;SDS011;7457;50.960;6.830;2022-08-21T02:52:45;14.02;;;10.45;;
14732;SDS011;7457;50.960;6.830;2022-08-21T02:55:11;17.00;;;10.50;;
14732;SDS011;7457;50.960;6.830;2022-08-21T02:57:36;16.42;;;11.38;;
14732;SDS011;7457;50.960;6.830;2022-08-21T03:00:04;16.30;;;10.73;;
14732;SDS011;7457;50.960;6.830;2022-08-21T03:02:30;15.10;;;11.02;;
14732;SDS011;7457;50.960;6.830;2022-08-21T03:04:55;13.48;;;11.45;;
14732;SDS011;7457;50.960;6.830;2022-08-21T03:07:21;17.38;;;10.82;;
14732;SDS011;7457;50.960;6.830;2022-08-21T03:09:47;14.45;;;11.18;;
14732;SDS011;7457;50.960;6.830;2022-08-21T03:12:13;17.35;;;11.68;;
14732;SDS011;7457;50.960;6.830;2022-08-21T03:14:38;15.60;;;10.82;;
14732;SDS011;7457;50.960;6.830;2022-08-21T03:17:04;15.27;;;10.57;;
14732;SDS011;7457;50.960;6.830;2022-08-21T03:19:30;19.48;;;10.57;;
14732;SDS011;7457;50.960;6.830;2022-08-21T03:21:56;19.70;;;10.82;;
14732;SDS011;7457;50.960;6.830;2022-08-21T03:24:21;16.58;;;10.15;;
14732;SDS011;7457;50.960;6.830;2022-08-21T03:26:47;13.77;;;10.73;;
14732;SDS011;7457;50.960;6.830;2022-08-21T03:29:12;15.98;;;10.57;;
14732;SDS011;7457;50.960;6.830;2022-08-21T03:31:38;14.02;;;11.02;;
14732;SDS011;7457;50.960;6.830;2022-08-21T03:34:04;20.90;;;11.30;;
14732;SDS011;7457;50.960;6.830;2022-08-21T03:36:30;16.25;;;10.30;;
14732;SDS011;7457;50.960;6.830;2022-08-21T03:38:55;15.45;;;11.02;;
14732;SDS011;7457;50.960;6.830;2022-08-21T03:41:21;14.93;;;10.48;;
14732;SDS011;7457;50.960;6.830;2022-08-21T03:43:47;15.35;;;8.98;;
14732;SDS011;7457;50.960;6.830;2022-08-21T03:46:12;12.32;;;10.45;;
14732;SDS011;7457;50.960;6.830;2022-08-21T03:48:38;14.55;;;10.52;;
14732;SDS011;7457;50.960;6.830;2022-08-21T03:51:04;13.57;;;9.13;;
14732;SDS011;7457;50.960;6.830;2022-08-21T03:53:31;16.85;;;10.23;;
14732;SDS011;7457;50.960;6.830;2022-08-21T03:55:57;15.35;;;9.50;;
14732;SDS011;7457;50.960;6.830;2022-08-21T03:58:24;13.70;;;9.38;;
14732;SDS011;7457;50.960;6.830;2022-08-21T04:00:52;11.38;;;8.13;;
14732;SDS011;7457;50.960;6.830;2022-08-21T04:03:20;14.40;;;8.52;;
14732;SDS011;7457;50.960;6.830;2022-08-21T04:05:47;11.68;;;7.65;;
14732;SDS011;7457;50.960;6.830;2022-08-21T04:08:13;12.18;;;7.70;;
14732;SDS011;7457;50.960;6.830;2022-08-21T04:10:40;11.93;;;8.00;;
14732;SDS011;7457;50.960;6.830;2022-08-21T04:13:08;14.40;;;8.55;;
14732;SDS011;7457;50.960;6.830;2022-08-21T04:15:34;13.10;;;7.85;;
14732;SDS011;7457;50.960;6.830;2022-08-21T04:18:00;11.75;;;8.70;;
14732;SDS011;7457;50.960;6.830;2022-08-21T04:20:26;12.45;;;8.30;;
14732;SDS011;7457;50.960;6.830;2022-08-21T04:22:52;12.65;;;8.25;;
14732;SDS011;7457;50.960;6.830;2022-08-21T04:25:19;14.15;;;7.85;;
14732;SDS011;7457;50.960;6.830;2022-08-21T04:27:46;13.25;;;7.88;;
14732;SDS011;7457;50.960;6.830;2022-08-21T04:30:12;11.60;;;7.93;;
14732;SDS011;7457;50.960;6.830;2022-08-21T04:32:41;11.10;;;6.93;;
14732;SDS011;7457;50.960;6.830;2022-08-21T04:35:12;9.02;;;6.80;;
14732;SDS011;7457;50.960;6.830;2022-08-21T04:37:40;13.82;;;7.97;;
14732;SDS011;7457;50.960;6.830;2022-08-21T04:40:06;11.10;;;7.70;;
14732;SDS011;7457;50.960;6.830;2022-08-21T04:42:32;15.05;;;8.10;;
14732;SDS011;7457;50.960;6.830;2022-08-21T04:45:05;13.85;;;8.80;;
14732;SDS011;7457;50.960;6.830;2022-08-21T04:47:30;11.57;;;8.20;;
14732;SDS011;7457;50.960;6.830;2022-08-21T04:49:56;11.82;;;8.45;;
14732;SDS011;7457;50.960;6.830;2022-08-21T04:52:22;11.75;;;8.43;;
14732;SDS011;7457;50.960;6.830;2022-08-21T04:54:48;12.23;;;8.40;;
14732;SDS011;7457;50.960;6.830;2022-08-21T04:57:16;13.43;;;8.18;;
14732;SDS011;7457;50.960;6.830;2022-08-21T04:59:44;9.85;;;8.80;;
14732;SDS011;7457;50.960;6.830;2022-08-21T05:02:12;12.02;;;8.50;;
14732;SDS011;7457;50.960;6.830;2022-08-21T05:04:42;14.32;;;8.27;;
14732;SDS011;7457;50.960;6.830;2022-08-21T05:07:12;13.07;;;8.90;;
14732;SDS011;7457;50.960;6.830;2022-08-21T05:09:42;12.13;;;8.35;;
14732;SDS011;7457;50.960;6.830;2022-08-21T05:12:08;11.90;;;8.25;;
14732;SDS011;7457;50.960;6.830;2022-08-21T05:14:34;8.98;;;7.68;;
14732;SDS011;7457;50.960;6.830;2022-08-21T05:17:00;9.60;;;7.95;;
14732;SDS011;7457;50.960;6.830;2022-08-21T05:19:25;14.18;;;8.30;;
14732;SDS011;7457;50.960;6.830;2022-08-21T05:21:51;14.73;;;8.05;;
14732;SDS011;7457;50.960;6.830;2022-08-21T05:24:17;13.18;;;8.10;;
14732;SDS011;7457;50.960;6.830;2022-08-21T05:26:43;10.93;;;8.15;;
14732;SDS011;7457;50.960;6.830;2022-08-21T05:29:09;13.68;;;8.00;;
14732;SDS011;7457;50.960;6.830;2022-08-21T05:31:36;9.30;;;7.13;;
14732;SDS011;7457;50.960;6.830;2022-08-21T05:34:02;9.40;;;7.70;;
14732;SDS011;7457;50.960;6.830;2022-08-21T05:36:28;10.18;;;8.13;;
14732;SDS011;7457;50.960;6.830;2022-08-21T05:38:54;12.02;;;7.68;;
14732;SDS011;7457;50.960;6.830;2022-08-21T05:41:20;15.90;;;7.53;;
14732;SDS011;7457;50.960;6.830;2022-08-21T05:43:46;14.98;;;7.32;;
14732;SDS011;7457;50.960;6.830;2022-08-21T05:46:12;8.10;;;6.15;;
14732;SDS011;7457;50.960;6.830;2022-08-21T05:48:37;9.73;;;7.15;;
14732;SDS011;7457;50.960;6.830;2022-08-21T05:51:04;13.73;;;7.00;;
14732;SDS011;7457;50.960;6.830;2022-08-21T05:53:38;8.07;;;6.90;;
14732;SDS011;7457;50.960;6.830;2022-08-21T05:56:05;7.93;;;6.20;;
14732;SDS011;7457;50.960;6.830;2022-08-21T05:58:32;10.60;;;6.60;;
14732;SDS011;7457;50.960;6.830;2022-08-21T06:00:58;8.63;;;6.57;;
14732;SDS011;7457;50.960;6.830;2022-08-21T06:03:26;9.30;;;7.45;;
14732;SDS011;7457;50.960;6.830;2022-08-21T06:05:55;13.95;;;6.30;;
14732;SDS011;7457;50.960;6.830;2022-08-21T06:08:21;8.85;;;6.10;;
14732;SDS011;7457;50.960;6.830;2022-08-21T06:10:47;9.07;;;5.88;;
14732;SDS011;7457;50.960;6.830;2022-08-21T06:13:15;13.93;;;6.65;;
14732;SDS011;7457;50.960;6.830;2022-08-21T06:15:41;15.50;;;6.47;;
14732;SDS011;7457;50.960;6.830;2022-08-21T06:18:07;9.88;;;6.10;;
14732;SDS011;7457;50.960;6.830;2022-08-21T06:20:33;8.85;;;6.32;;
14732;SDS011;7457;50.960;6.830;2022-08-21T06:22:59;8.60;;;5.88;;
14732;SDS011;7457;50.960;6.830;2022-08-21T06:25:25;7.93;;;5.03;;
14732;SDS011;7457;50.960;6.830;2022-08-21T06:27:51;8.25;;;4.22;;
14732;SDS011;7457;50.960;6.830;2022-08-21T06:30:17;8.85;;;4.97;;
14732;SDS011;7457;50.960;6.830;2022-08-21T06:32:43;7.68;;;4.97;;
14732;SDS011;7457;50.960;6.830;2022-08-21T06:35:09;6.13;;;3.92;;
14732;SDS011;7457;50.960;6.830;2022-08-21T06:37:34;8.38;;;4.15;;
14732;SDS011;7457;50.960;6.830;2022-08-21T06:40:02;9.30;;;4.60;;
14732;SDS011;7457;50.960;6.830;2022-08-21T06:42:29;7.10;;;3.95;;
14732;SDS011;7457;50.960;6.830;2022-08-21T06:44:56;5.60;;;3.70;;
14732;SDS011;7457;50.960;6.830;2022-08-21T06:47:22;5.50;;;3.60;;
14732;SDS011;7457;50.960;6.830;2022-08-21T06:49:47;9.43;;;3.92;;
14732;SDS011;7457;50.960;6.830;2022-08-21T06:52:13;8.32;;;3.50;;
14732;SDS011;7457;50.960;6.830;2022-08-21T06:54:39;6.80;;;3.45;;
14732;SDS011;7457;50.960;6.830;2022-08-21T06:57:06;8.77;;;3.20;;
14732;SDS011;7457;50.960;6.830;2022-08-21T06:59:31;8.55;;;3.33;;
14732;SDS011;7457;50.960;6.830;2022-08-21T07:01:58;7.95;;;3.28;;
14732;SDS011;7457;50.960;6.830;2022-08-21T07:04:24;9.23;;;3.38;;
14732;SDS011;7457;50.960;6.830;2022-08-21T07:06:50;4.55;;;2.40;;
14732;SDS011;7457;50.960;6.830;2022-08-21T07:09:16;9.40;;;2.63;;
14732;SDS011;7457;50.960;6.830;2022-08-21T07:11:42;5.10;;;2.63;;
14732;SDS011;7457;50.960;6.830;2022-08-21T07:14:10;5.80;;;2.50;;
14732;SDS011;7457;50.960;6.830;2022-08-21T07:16:36;7.20;;;2.88;;
14732;SDS011;7457;50.960;6.830;2022-08-21T07:19:01;8.35;;;2.30;;
14732;SDS011;7457;50.960;6.830;2022-08-21T07:21:27;11.20;;;2.80;;
14732;SDS011;7457;50.960;6.830;2022-08-21T07:23:53;5.18;;;2.67;;
14732;SDS011;7457;50.960;6.830;2022-08-21T07:26:20;5.13;;;2.30;;
14732;SDS011;7457;50.960;6.830;2022-08-21T07:28:47;5.13;;;2.17;;
14732;SDS011;7457;50.960;6.830;2022-08-21T07:31:14;5.80;;;2.60;;
14732;SDS011;7457;50.960;6.830;2022-08-21T07:33:41;5.65;;;2.75;;
14732;SDS011;7457;50.960;6.830;2022-08-21T07:36:07;7.63;;;2.55;;
14732;SDS011;7457;50.960;6.830;2022-08-21T07:38:33;8.57;;;3.05;;
14732;SDS011;7457;50.960;6.830;2022-08-21T07:41:00;6.20;;;2.88;;
14732;SDS011;7457;50.960;6.830;2022-08-21T07:43:27;5.65;;;2.88;;
14732;SDS011;7457;50.960;6.830;2022-08-21T07:45:54;6.60;;;2.38;;
14732;SDS011;7457;50.960;6.830;2022-08-21T07:48:23;6.55;;;2.75;;
14732;SDS011;7457;50.960;6.830;2022-08-21T07:50:49;6.10;;;2.78;;
14732;SDS011;7457;50.960;6.830;2022-08-21T07:53:16;10.75;;;2.83;;
14732;SDS011;7457;50.960;6.830;2022-08-21T07:55:42;5.78;;;2.20;;
14732;SDS011;7457;50.960;6.830;2022-08-21T07:58:07;4.40;;;1.90;;
14732;SDS011;7457;50.960;6.830;2022-08-21T08:00:33;7.28;;;2.67;;
14732;SDS011;7457;50.960;6.830;2022-08-21T08:02:59;7.75;;;2.22;;
14732;SDS011;7457;50.960;6.830;2022-08-21T08:05:26;3.50;;;2.10;;
14732;SDS011;7457;50.960;6.830;2022-08-21T08:07:55;7.18;;;2.42;;
14732;SDS011;7457;50.960;6.830;2022-08-21T08:10:21;4.85;;;2.33;;
14732;SDS011;7457;50.960;6.830;2022-08-21T08:12:48;5.95;;;2.70;;
14732;SDS011;7457;50.960;6.830;2022-08-21T08:15:17;5.78;;;2.40;;
14732;SDS011;7457;50.960;6.830;2022-08-21T08:17:44;5.22;;;2.45;;
14732;SDS011;7457;50.960;6.830;2022-08-21T08:20:11;4.80;;;2.53;;
14732;SDS011;7457;50.960;6.830;2022-08-21T08:22:38;7.70;;;2.72;;
14732;SDS011;7457;50.960;6.830;2022-08-21T08:25:04;7.38;;;3.03;;
14732;SDS011;7457;50.960;6.830;2022-08-21T08:27:31;9.13;;;2.53;;
14732;SDS011;7457;50.960;6.830;2022-08-21T08:29:57;6.10;;;2.83;;
14732;SDS011;7457;50.960;6.830;2022-08-21T08:32:22;5.30;;;2.50;;
14732;SDS011;7457;50.960;6.830;2022-08-21T08:34:49;8.45;;;2.53;;
14732;SDS011;7457;50.960;6.830;2022-08-21T08:37:16;4.30;;;2.40;;
14732;SDS011;7457;50.960;6.830;2022-08-21T08:39:43;6.10;;;1.83;;
14732;SDS011;7457;50.960;6.830;2022-08-21T08:42:16;10.45;;;2.35;;
14732;SDS011;7457;50.960;6.830;2022-08-21T08:44:55;3.33;;;2.10;;
14732;SDS011;7457;50.960;6.830;2022-08-21T08:47:24;7.30;;;2.20;;
14732;SDS011;7457;50.960;6.830;2022-08-21T08:52:39;5.38;;;2.05;;
14732;SDS011;7457;50.960;6.830;2022-08-21T08:55:20;7.00;;;2.30;;
14732;SDS011;7457;50.960;6.830;2022-08-21T08:57:59;6.45;;;2.10;;
14732;SDS011;7457;50.960;6.830;2022-08-21T09:00:27;5.78;;;2.10;;
14732;SDS011;7457;50.960;6.830;2022-08-21T09:02:56;4.15;;;1.50;;
14732;SDS011;7457;50.960;6.830;2022-08-21T09:05:28;10.60;;;2.47;;
14732;SDS011;7457;50.960;6.830;2022-08-21T09:27:55;6.63;;;1.98;;
14732;SDS011;7457;50.960;6.830;2022-08-21T09:30:24;6.22;;;1.70;;
14732;SDS011;7457;50.960;6.830;2022-08-21T09:32:53;5.85;;;2.08;;
14732;SDS011;7457;50.960;6.830;2022-08-21T09:35:20;7.03;;;2.08;;
14732;SDS011;7457;50.960;6.830;2022-08-21T09:37:51;6.78;;;2.22;;
14732;SDS011;7457;50.960;6.830;2022-08-21T09:45:35;8.45;;;2.10;;
14732;SDS011;7457;50.960;6.830;2022-08-21T09:48:08;4.93;;;2.05;;
14732;SDS011;7457;50.960;6.830;2022-08-21T09:50:43;6.03;;;1.73;;
14732;SDS011;7457;50.960;6.830;2022-08-21T09:53:20;7.57;;;2.10;;
14732;SDS011;7457;50.960;6.830;2022-08-21T09:55:53;6.20;;;1.83;;
14732;SDS011;7457;50.960;6.830;2022-08-21T09:58:48;4.80;;;1.65;;
14732;SDS011;7457;50.960;6.830;2022-08-21T10:01:18;3.25;;;1.83;;
14732;SDS011;7457;50.960;6.830;2022-08-21T10:03:45;6.85;;;2.10;;
14732;SDS011;7457;50.960;6.830;2022-08-21T10:06:24;9.55;;;2.17;;
14732;SDS011;7457;50.960;6.830;2022-08-21T10:09:02;5.22;;;2.00;;
14732;SDS011;7457;50.960;6.830;2022-08-21T10:11:39;4.60;;;1.98;;
14732;SDS011;7457;50.960;6.830;2022-08-21T10:14:14;4.22;;;1.65;;
14732;SDS011;7457;50.960;6.830;2022-08-21T10:19:38;4.35;;;1.88;;
14732;SDS011;7457;50.960;6.830;2022-08-21T10:22:34;6.68;;;2.47;;
14732;SDS011;7457;50.960;6.830;2022-08-21T10:28:09;4.20;;;1.58;;
14732;SDS011;7457;50.960;6.830;2022-08-21T10:35:49;8.90;;;1.73;;
14732;SDS011;7457;50.960;6.830;2022-08-21T10:43:35;4.70;;;1.63;;
14732;SDS011;7457;50.960;6.830;2022-08-21T10:46:19;3.90;;;1.42;;
14732;SDS011;7457;50.960;6.830;2022-08-21T10:49:39;3.95;;;1.58;;
14732;SDS011;7457;50.960;6.830;2022-08-21T10:54:57;5.18;;;1.98;;
14732;SDS011;7457;50.960;6.830;2022-08-21T11:00:22;5.28;;;1.40;;
14732;SDS011;7457;50.960;6.830;2022-08-21T11:05:44;4.68;;;1.63;;
14732;SDS011;7457;50.960;6.830;2022-08-21T11:08:17;6.72;;;1.77;;
14732;SDS011;7457;50.960;6.830;2022-08-21T11:13:47;4.70;;;1.55;;
14732;SDS011;7457;50.960;6.830;2022-08-21T11:19:18;3.78;;;1.45;;
14732;SDS011;7457;50.960;6.830;2022-08-21T11:22:05;2.83;;;1.55;;
14732;SDS011;7457;50.960;6.830;2022-08-21T11:24:49;4.25;;;1.60;;
14732;SDS011;7457;50.960;6.830;2022-08-21T11:27:46;3.97;;;1.38;;
14732;SDS011;7457;50.960;6.830;2022-08-21T11:30:17;4.53;;;1.50;;
14732;SDS011;7457;50.960;6.830;2022-08-21T11:35:49;3.92;;;1.70;;
14732;SDS011;7457;50.960;6.830;2022-08-21T11:43:35;3.05;;;1.42;;
14732;SDS011;7457;50.960;6.830;2022-08-21T11:46:33;3.92;;;1.63;;
14732;SDS011;7457;50.960;6.830;2022-08-21T11:54:35;6.53;;;2.08;;
14732;SDS011;7457;50.960;6.830;2022-08-21T12:00:34;4.60;;;2.20;;
14732;SDS011;7457;50.960;6.830;2022-08-21T12:03:07;4.72;;;1.92;;
14732;SDS011;7457;50.960;6.830;2022-08-21T12:06:02;3.92;;;1.60;;
14732;SDS011;7457;50.960;6.830;2022-08-21T12:08:33;8.25;;;2.75;;
14732;SDS011;7457;50.960;6.830;2022-08-21T12:11:07;4.03;;;1.60;;
14732;SDS011;7457;50.960;6.830;2022-08-21T12:27:13;4.75;;;1.85;;
14732;SDS011;7457;50.960;6.830;2022-08-21T12:29:38;2.08;;;1.48;;
14732;SDS011;7457;50.960;6.830;2022-08-21T12:34:47;5.60;;;1.98;;
14732;SDS011;7457;50.960;6.830;2022-08-21T12:40:10;5.93;;;1.85;;
14732;SDS011;7457;50.960;6.830;2022-08-21T12:42:53;5.00;;;2.20;;
14732;SDS011;7457;50.960;6.830;2022-08-21T12:48:00;6.05;;;2.15;;
14732;SDS011;7457;50.960;6.830;2022-08-21T12:53:05;5.53;;;2.13;;
14732;SDS011;7457;50.960;6.830;2022-08-21T12:55:35;5.63;;;2.55;;
14732;SDS011;7457;50.960;6.830;2022-08-21T12:58:06;6.30;;;2.10;;
14732;SDS011;7457;50.960;6.830;2022-08-21T13:00:44;5.45;;;2.22;;
14732;SDS011;7457;50.960;6.830;2022-08-21T13:03:17;4.20;;;2.08;;
14732;SDS011;7457;50.960;6.830;2022-08-21T13:05:44;2.60;;;1.67;;
14732;SDS011;7457;50.960;6.830;2022-08-21T13:08:10;11.20;;;1.95;;
14732;SDS011;7457;50.960;6.830;2022-08-21T13:10:37;3.85;;;1.55;;
14732;SDS011;7457;50.960;6.830;2022-08-21T13:13:07;5.15;;;1.60;;
14732;SDS011;7457;50.960;6.830;2022-08-21T13:15:40;4.70;;;1.70;;
14732;SDS011;7457;50.960;6.830;2022-08-21T13:18:07;5.57;;;1.33;;
14732;SDS011;7457;50.960;6.830;2022-08-21T13:20:34;7.13;;;1.75;;
14732;SDS011;7457;50.960;6.830;2022-08-21T13:23:03;3.72;;;1.60;;
14732;SDS011;7457;50.960;6.830;2022-08-21T13:25:36;6.10;;;1.85;;
14732;SDS011;7457;50.960;6.830;2022-08-21T13:28:06;5.13;;;1.75;;
14732;SDS011;7457;50.960;6.830;2022-08-21T13:30:46;3.78;;;1.90;;
14732;SDS011;7457;50.960;6.830;2022-08-21T13:33:15;5.32;;;1.80;;
14732;SDS011;7457;50.960;6.830;2022-08-21T13:35:46;3.80;;;2.05;;
14732;SDS011;7457;50.960;6.830;2022-08-21T13:38:30;9.93;;;2.25;;
14732;SDS011;7457;50.960;6.830;2022-08-21T13:43:35;6.63;;;2.40;;
14732;SDS011;7457;50.960;6.830;2022-08-21T13:46:06;24.08;;;17.90;;
14732;SDS011;7457;50.960;6.830;2022-08-21T13:48:35;20.40;;;18.23;;
14732;SDS011;7457;50.960;6.830;2022-08-21T13:51:02;9.13;;;7.55;;
14732;SDS011;7457;50.960;6.830;2022-08-21T13:53:30;5.43;;;2.17;;
14732;SDS011;7457;50.960;6.830;2022-08-21T13:55:59;6.32;;;4.22;;
14732;SDS011;7457;50.960;6.830;2022-08-21T13:58:30;8.77;;;5.88;;
14732;SDS011;7457;50.960;6.830;2022-08-21T14:01:15;6.43;;;2.95;;
14732;SDS011;7457;50.960;6.830;2022-08-21T14:03:47;4.40;;;1.90;;
14732;SDS011;7457;50.960;6.830;2022-08-21T14:06:16;3.13;;;1.77;;
14732;SDS011;7457;50.960;6.830;2022-08-21T14:09:00;5.03;;;2.10;;
14732;SDS011;7457;50.960;6.830;2022-08-21T14:11:33;5.35;;;2.17;;
14732;SDS011;7457;50.960;6.830;2022-08-21T14:14:02;5.22;;;1.80;;
14732;SDS011;7457;50.960;6.830;2022-08-21T14:17:04;6.57;;;2.15;;
14732;SDS011;7457;50.960;6.830;2022-08-21T14:19:43;9.48;;;4.20;;
14732;SDS011;7457;50.960;6.830;2022-08-21T14:25:08;6.22;;;2.55;;
14732;SDS011;7457;50.960;6.830;2022-08-21T14:28:24;3.95;;;2.38;;
14732;SDS011;7457;50.960;6.830;2022-08-21T14:30:43;6.85;;;3.42;;
14732;SDS011;7457;50.960;6.830;2022-08-21T14:33:13;3.70;;;1.23;;
14732;SDS011;7457;50.960;6.830;2022-08-21T14:35:46;1.65;;;1.27;;
14732;SDS011;7457;50.960;6.830;2022-08-21T14:38:21;5.40;;;1.77;;
14732;SDS011;7457;50.960;6.830;2022-08-21T14:40:50;3.00;;;1.58;;
14732;SDS011;7457;50.960;6.830;2022-08-21T14:43:19;6.63;;;1.45;;
14732;SDS011;7457;50.960;6.830;2022-08-21T14:45:45;1.83;;;1.42;;
14732;SDS011;7457;50.960;6.830;2022-08-21T14:48:12;2.20;;;1.40;;
14732;SDS011;7457;50.960;6.830;2022-08-21T14:50:37;2.42;;;1.30;;
14732;SDS011;7457;50.960;6.830;2022-08-21T14:53:03;3.08;;;1.30;;
14732;SDS011;7457;50.960;6.830;2022-08-21T14:55:30;3.60;;;1.85;;
14732;SDS011;7457;50.960;6.830;2022-08-21T14:58:16;6.15;;;1.58;;
14732;SDS011;7457;50.960;6.830;2022-08-21T15:00:42;2.17;;;1.60;;
14732;SDS011;7457;50.960;6.830;2022-08-21T15:03:08;3.47;;;1.80;;
14732;SDS011;7457;50.960;6.830;2022-08-21T15:05:33;4.32;;;1.92;;
14732;SDS011;7457;50.960;6.830;2022-08-21T15:07:59;4.68;;;1.80;;
14732;SDS011;7457;50.960;6.830;2022-08-21T15:10:26;3.75;;;1.33;;
14732;SDS011;7457;50.960;6.830;2022-08-21T15:12:52;3.67;;;1.77;;
14732;SDS011;7457;50.960;6.830;2022-08-21T15:15:17;7.40;;;1.95;;
14732;SDS011;7457;50.960;6.830;2022-08-21T15:17:43;4.53;;;1.95;;
14732;SDS011;7457;50.960;6.830;2022-08-21T15:20:09;2.65;;;1.52;;
14732;SDS011;7457;50.960;6.830;2022-08-21T15:22:35;4.13;;;1.45;;
14732;SDS011;7457;50.960;6.830;2022-08-21T15:25:01;4.03;;;1.40;;
14732;SDS011;7457;50.960;6.830;2022-08-21T15:27:27;4.28;;;1.45;;
14732;SDS011;7457;50.960;6.830;2022-08-21T15:29:53;8.27;;;3.55;;
14732;SDS011;7457;50.960;6.830;2022-08-21T15:32:20;3.97;;;2.53;;
14732;SDS011;7457;50.960;6.830;2022-08-21T15:34:51;10.25;;;4.97;;
14732;SDS011;7457;50.960;6.830;2022-08-21T15:37:18;2.35;;;1.33;;
14732;SDS011;7457;50.960;6.830;2022-08-21T15:39:45;4.78;;;2.65;;
14732;SDS011;7457;50.960;6.830;2022-08-21T15:42:10;3.92;;;2.42;;
14732;SDS011;7457;50.960;6.830;2022-08-21T15:44:41;2.33;;;1.80;;
14732;SDS011;7457;50.960;6.830;2022-08-21T15:47:18;3.90;;;1.65;;
14732;SDS011;7457;50.960;6.830;2022-08-21T15:49:45;4.10;;;1.30;;
14732;SDS011;7457;50.960;6.830;2022-08-21T15:52:12;4.00;;;1.42;;
14732;SDS011;7457;50.960;6.830;2022-08-21T15:54:42;3.50;;;1.48;;
14732;SDS011;7457;50.960;6.830;2022-08-21T15:57:09;3.13;;;1.48;;
14732;SDS011;7457;50.960;6.830;2022-08-21T15:59:39;5.72;;;1.70;;
14732;SDS011;7457;50.960;6.830;2022-08-21T16:02:12;4.35;;;1.73;;
14732;SDS011;7457;50.960;6.830;2022-08-21T16:04:42;4.68;;;1.70;;
14732;SDS011;7457;50.960;6.830;2022-08-21T16:07:08;2.85;;;1.58;;
14732;SDS011;7457;50.960;6.830;2022-08-21T16:09:34;3.70;;;2.00;;
14732;SDS011;7457;50.960;6.830;2022-08-21T16:12:00;5.45;;;2.10;;
14732;SDS011;7457;50.960;6.830;2022-08-21T16:14:26;5.18;;;2.25;;
14732;SDS011;7457;50.960;6.830;2022-08-21T16:16:54;6.68;;;2.83;;
14732;SDS011;7457;50.960;6.830;2022-08-21T16:19:20;4.00;;;1.73;;
14732;SDS011;7457;50.960;6.830;2022-08-21T16:21:46;8.40;;;3.15;;
14732;SDS011;7457;50.960;6.830;2022-08-21T16:24:12;4.32;;;1.40;;
14732;SDS011;7457;50.960;6.830;2022-08-21T16:26:38;3.08;;;1.60;;
14732;SDS011;7457;50.960;6.830;2022-08-21T16:29:04;3.10;;;2.40;;
14732;SDS011;7457;50.960;6.830;2022-08-21T16:31:31;4.45;;;2.28;;
14732;SDS011;7457;50.960;6.830;2022-08-21T16:33:57;4.45;;;2.20;;
14732;SDS011;7457;50.960;6.830;2022-08-21T16:36:25;2.67;;;1.55;;
14732;SDS011;7457;50.960;6.830;2022-08-21T16:38:52;4.65;;;2.08;;
14732;SDS011;7457;50.960;6.830;2022-08-21T16:41:19;5.43;;;1.83;;
14732;SDS011;7457;50.960;6.830;2022-08-21T16:43:45;6.85;;;2.10;;
14732;SDS011;7457;50.960;6.830;2022-08-21T16:46:13;5.25;;;2.70;;
14732;SDS011;7457;50.960;6.830;2022-08-21T16:48:40;11.80;;;4.60;;
14732;SDS011;7457;50.960;6.830;2022-08-21T16:51:09;6.72;;;2.90;;